Time;durP1;ratioP1;P1;durP2;ratioP2;P2;SDS_P1;SDS_P2;PMS_P1;PMS_P2;Temp;Humidity;BMP_temperature;BMP_pressure;BME280_temperature;BME280_humidity;BME280_pressure;Samples;Min_cycle;Max_cycle;Signal;HPM_P1;HPM_P2
2023/04/16 00:00:11;;;;;;;5.03;3.70;;;;;;;;;;13044725;22;20686;-85
2023/04/16 00:05:13;;;;;;;5.45;3.97;;;;;;;;;;13043761;22;20833;-86
2023/04/16 00:10:17;;;;;;;4.03;3.20;;;;;;;;;;13044088;22;20951;-85
2023/04/16 00:15:19;;;;;;;5.22;3.50;;;;;;;;;;13045482;22;20373;-85
2023/04/16 00:20:22;;;;;;;5.40;3.67;;;;;;;;;;13043552;22;20451;-84
2023/04/16 00:25:26;;;;;;;5.88;3.28;;;;;;;;;;13041780;22;20392;-85
2023/04/16 00:30:28;;;;;;;4.00;3.47;;;;;;;;;;13043596;22;20790;-85
2023/04/16 00:35:30;;;;;;;5.72;4.10;;;;;;;;;;13043547;22;20832;-86
2023/04/16 00:40:33;;;;;;;5.78;3.55;;;;;;;;;;13044643;22;20430;-85
2023/04/16 00:45:36;;;;;;;5.15;3.63;;;;;;;;;;13044439;22;20381;-85
2023/04/16 00:50:38;;;;;;;5.10;3.88;;;;;;;;;;13044334;22;20732;-85
2023/04/16 00:55:41;;;;;;;5.93;4.00;;;;;;;;;;13044118;22;20403;-85
2023/04/16 01:00:43;;;;;;;5.13;3.63;;;;;;;;;;13044215;22;20419;-85
2023/04/16 01:05:48;;;;;;;4.75;3.35;;;;;;;;;;13042274;22;20384;-85
2023/04/16 01:10:51;;;;;;;7.32;5.00;;;;;;;;;;13043056;22;20423;-85
2023/04/16 01:15:53;;;;;;;5.45;3.35;;;;;;;;;;13043844;22;20400;-85
2023/04/16 01:20:56;;;;;;;6.77;3.97;;;;;;;;;;13040073;22;20395;-88
2023/04/16 01:25:58;;;;;;;5.85;3.80;;;;;;;;;;13047469;22;20368;-90
2023/04/16 01:30:59;;;;;;;5.45;4.10;;;;;;;;;;13048597;22;20360;-90
2023/04/16 01:36:03;;;;;;;4.90;3.78;;;;;;;;;;13047259;22;20353;-90
2023/04/16 01:41:05;;;;;;;6.38;4.25;;;;;;;;;;13046293;22;20388;-90
2023/04/16 01:46:14;;;;;;;4.03;3.63;;;;;;;;;;13046552;22;20380;-90
2023/04/16 01:51:17;;;;;;;6.57;4.28;;;;;;;;;;13046890;22;20840;-90
2023/04/16 01:56:19;;;;;;;4.68;4.13;;;;;;;;;;13047202;22;20399;-91
2023/04/16 02:01:21;;;;;;;6.03;4.10;;;;;;;;;;13047179;22;20384;-90
2023/04/16 02:06:24;;;;;;;5.85;4.45;;;;;;;;;;13046067;22;20415;-90
2023/04/16 02:11:26;;;;;;;6.88;4.88;;;;;;;;;;13046864;22;20388;-90
2023/04/16 02:16:28;;;;;;;5.57;4.13;;;;;;;;;;13046214;22;20848;-90
2023/04/16 02:21:31;;;;;;;6.00;4.40;;;;;;;;;;13044481;22;20453;-91
2023/04/16 02:26:33;;;;;;;7.25;4.63;;;;;;;;;;13042671;22;20408;-90
2023/04/16 02:31:35;;;;;;;5.67;4.60;;;;;;;;;;13043782;22;20383;-89
2023/04/16 02:36:38;;;;;;;7.85;4.90;;;;;;;;;;13044762;22;20411;-90
2023/04/16 02:41:40;;;;;;;7.30;5.13;;;;;;;;;;13042670;22;20452;-90
2023/04/16 02:46:42;;;;;;;8.48;5.20;;;;;;;;;;13043983;22;20415;-90
2023/04/16 02:51:45;;;;;;;5.90;4.67;;;;;;;;;;13043530;22;20368;-88
2023/04/16 02:56:47;;;;;;;6.77;5.00;;;;;;;;;;13043450;22;20368;-87
2023/04/16 03:01:49;;;;;;;6.68;4.93;;;;;;;;;;13044521;22;20414;-90
2023/04/16 03:06:52;;;;;;;6.25;5.00;;;;;;;;;;13043686;22;20380;-90
2023/04/16 03:11:54;;;;;;;6.13;4.70;;;;;;;;;;13042281;22;20393;-90
2023/04/16 03:16:56;;;;;;;7.57;4.70;;;;;;;;;;13043712;22;20357;-90
2023/04/16 03:22:00;;;;;;;6.27;4.83;;;;;;;;;;12959965;22;1933107;-90
2023/04/16 03:27:02;;;;;;;7.10;5.05;;;;;;;;;;13046587;22;20455;-90
2023/04/16 03:32:04;;;;;;;5.60;4.90;;;;;;;;;;13046286;22;20353;-90
2023/04/16 03:37:10;;;;;;;5.20;4.70;;;;;;;;;;13049830;22;20357;-90
2023/04/16 03:42:12;;;;;;;6.33;5.07;;;;;;;;;;13049684;22;20368;-90
2023/04/16 03:47:14;;;;;;;6.40;4.85;;;;;;;;;;13049069;22;20383;-90
2023/04/16 03:52:17;;;;;;;6.15;4.90;;;;;;;;;;13050001;22;20440;-90
2023/04/16 03:57:19;;;;;;;5.60;5.05;;;;;;;;;;13048541;22;20353;-90
2023/04/16 04:02:21;;;;;;;6.10;4.90;;;;;;;;;;13049493;22;20368;-90
2023/04/16 04:07:24;;;;;;;5.63;4.80;;;;;;;;;;13048596;22;20389;-90
2023/04/16 04:12:26;;;;;;;5.77;4.97;;;;;;;;;;13048664;22;20901;-90
2023/04/16 04:17:28;;;;;;;6.33;4.50;;;;;;;;;;13048946;22;20436;-90
2023/04/16 04:22:31;;;;;;;7.45;4.75;;;;;;;;;;13047716;22;20369;-89
2023/04/16 04:27:33;;;;;;;6.03;4.45;;;;;;;;;;13048833;22;20380;-88
2023/04/16 04:32:34;;;;;;;6.95;4.88;;;;;;;;;;13048684;22;20390;-89
2023/04/16 04:37:38;;;;;;;5.27;4.07;;;;;;;;;;13049758;22;20431;-90
2023/04/16 04:42:39;;;;;;;5.17;3.73;;;;;;;;;;13048262;22;20353;-90
2023/04/16 04:47:41;;;;;;;4.53;3.63;;;;;;;;;;13048343;22;20431;-90
2023/04/16 04:52:45;;;;;;;5.18;3.92;;;;;;;;;;13048740;22;20368;-90
2023/04/16 04:57:46;;;;;;;4.53;3.40;;;;;;;;;;13046633;22;20365;-90
2023/04/16 05:02:49;;;;;;;4.97;3.65;;;;;;;;;;13048478;22;20432;-90
2023/04/16 05:07:53;;;;;;;4.03;3.45;;;;;;;;;;13048207;22;20388;-90
2023/04/16 05:12:54;;;;;;;4.55;3.22;;;;;;;;;;13047181;22;20389;-90
2023/04/16 05:17:56;;;;;;;3.50;3.07;;;;;;;;;;13048366;22;20372;-89
2023/04/16 05:22:59;;;;;;;4.45;3.13;;;;;;;;;;13048018;22;20379;-89
2023/04/16 05:28:01;;;;;;;4.80;3.28;;;;;;;;;;13047449;22;20433;-89
2023/04/16 05:33:03;;;;;;;3.28;2.75;;;;;;;;;;13047836;22;20364;-89
2023/04/16 05:38:07;;;;;;;3.72;2.75;;;;;;;;;;13046836;22;20844;-90
2023/04/16 05:43:08;;;;;;;5.90;2.95;;;;;;;;;;13046819;22;20851;-89
2023/04/16 05:48:11;;;;;;;4.30;2.85;;;;;;;;;;13047134;22;20377;-90
2023/04/16 05:53:14;;;;;;;3.72;2.90;;;;;;;;;;13046787;22;20353;-90
2023/04/16 05:58:16;;;;;;;2.90;2.60;;;;;;;;;;13046793;22;20364;-89
2023/04/16 06:03:18;;;;;;;3.80;2.60;;;;;;;;;;13044833;22;20451;-90
2023/04/16 06:08:21;;;;;;;2.90;2.40;;;;;;;;;;13043348;22;20434;-89
2023/04/16 06:13:23;;;;;;;3.17;2.43;;;;;;;;;;13045432;22;20380;-89
2023/04/16 06:18:25;;;;;;;3.60;2.60;;;;;;;;;;13045682;22;20369;-90
2023/04/16 06:23:28;;;;;;;3.40;2.60;;;;;;;;;;13045559;22;20761;-89
2023/04/16 06:28:29;;;;;;;3.88;2.70;;;;;;;;;;13045064;22;20440;-89
2023/04/16 06:33:31;;;;;;;4.07;2.80;;;;;;;;;;13046058;22;20452;-89
2023/04/16 06:38:36;;;;;;;3.15;2.50;;;;;;;;;;13044861;22;20360;-89
2023/04/16 06:43:37;;;;;;;3.78;2.63;;;;;;;;;;13045271;22;20403;-87
2023/04/16 06:48:39;;;;;;;3.70;2.47;;;;;;;;;;13044983;22;20705;-86
2023/04/16 06:53:43;;;;;;;2.80;2.38;;;;;;;;;;13044494;22;20451;-89
2023/04/16 06:58:45;;;;;;;2.60;2.25;;;;;;;;;;13044297;22;20356;-89
2023/04/16 07:03:46;;;;;;;3.10;1.90;;;;;;;;;;13049930;22;20440;-90
2023/04/16 07:08:50;;;;;;;2.13;1.93;;;;;;;;;;13048855;22;20381;-90
2023/04/16 07:13:52;;;;;;;3.43;1.97;;;;;;;;;;13052668;22;20512;-88
2023/04/16 07:18:54;;;;;;;3.77;2.37;;;;;;;;;;13048828;22;20369;-87
2023/04/16 07:23:57;;;;;;;1.83;1.73;;;;;;;;;;13051149;22;20382;-87
2023/04/16 07:28:59;;;;;;;1.20;1.10;;;;;;;;;;13050818;22;20377;-90
2023/04/16 07:34:01;;;;;;;1.37;0.97;;;;;;;;;;13050859;22;20909;-89
2023/04/16 07:39:04;;;;;;;2.03;1.00;;;;;;;;;;13046672;22;20412;-89
2023/04/16 07:44:06;;;;;;;1.70;1.10;;;;;;;;;;13048637;22;20375;-86
2023/04/16 07:49:08;;;;;;;3.07;1.10;;;;;;;;;;13049213;22;20385;-92
2023/04/16 07:54:11;;;;;;;1.80;1.00;;;;;;;;;;13050680;22;20353;-88
2023/04/16 07:59:13;;;;;;;2.75;0.85;;;;;;;;;;13050667;22;20817;-85
2023/04/16 08:04:16;;;;;;;1.17;0.93;;;;;;;;;;13049705;22;20361;-86
2023/04/16 08:09:19;;;;;;;1.53;0.70;;;;;;;;;;13049554;22;20387;-86
2023/04/16 08:14:21;;;;;;;1.00;0.70;;;;;;;;;;13050201;22;21050;-84
2023/04/16 08:19:23;;;;;;;1.75;0.80;;;;;;;;;;13050760;22;20365;-87
2023/04/16 08:24:26;;;;;;;1.83;0.70;;;;;;;;;;13051272;22;20353;-88
2023/04/16 08:29:28;;;;;;;0.75;0.60;;;;;;;;;;13051532;22;20460;-87
2023/04/16 08:34:30;;;;;;;0.80;0.75;;;;;;;;;;13051919;22;20424;-88
2023/04/16 08:39:34;;;;;;;0.98;0.77;;;;;;;;;;13049866;22;20766;-88
2023/04/16 08:44:39;;;;;;;1.10;0.83;;;;;;;;;;13050766;22;20685;-89
2023/04/16 08:49:44;;;;;;;0.60;0.60;;;;;;;;;;13052031;22;20388;-89
2023/04/16 08:54:53;;;;;;;0.65;0.50;;;;;;;;;;13050665;22;20372;-89
2023/04/16 08:59:56;;;;;;;1.93;0.50;;;;;;;;;;13050285;22;20443;-89
2023/04/16 09:04:59;;;;;;;0.63;0.63;;;;;;;;;;13050043;22;20411;-89
2023/04/16 09:10:03;;;;;;;0.65;0.50;;;;;;;;;;13049680;22;20404;-88
2023/04/16 09:15:06;;;;;;;0.45;0.40;;;;;;;;;;13046530;22;20383;-92
2023/04/16 09:20:09;;;;;;;1.05;0.55;;;;;;;;;;13071039;22;20364;-90
2023/04/16 09:25:13;;;;;;;1.20;0.60;;;;;;;;;;13047292;22;20442;-89
2023/04/16 09:30:22;;;;;;;0.47;0.40;;;;;;;;;;13047393;22;20434;-90
2023/04/16 09:35:24;;;;;;;0.83;0.43;;;;;;;;;;13046358;22;20842;-92
2023/04/16 09:40:30;;;;;;;0.40;0.40;;;;;;;;;;13048366;22;20418;-91
2023/04/16 09:45:32;;;;;;;0.57;0.50;;;;;;;;;;13049588;22;20427;-89
2023/04/16 09:50:34;;;;;;;0.98;0.40;;;;;;;;;;13068904;22;20377;-96
2023/04/16 09:55:37;;;;;;;0.50;0.50;;;;;;;;;;13063417;22;20364;-87
2023/04/16 10:00:41;;;;;;;0.50;0.50;;;;;;;;;;13046520;22;20361;-86
2023/04/16 10:05:43;;;;;;;1.05;0.60;;;;;;;;;;13044981;22;20357;-87
2023/04/16 10:10:46;;;;;;;0.40;0.40;;;;;;;;;;13041110;22;20383;-91
2023/04/16 10:15:48;;;;;;;2.30;0.60;;;;;;;;;;13052325;22;20372;-92
2023/04/16 10:20:51;;;;;;;0.73;0.68;;;;;;;;;;13053849;22;20365;-91
2023/04/16 10:25:55;;;;;;;0.70;0.60;;;;;;;;;;13058805;22;20832;-92
2023/04/16 10:30:57;;;;;;;0.55;0.55;;;;;;;;;;13053394;22;20385;-92
2023/04/16 10:36:10;;;;;;;0.52;0.50;;;;;;;;;;13052021;22;20448;-91
2023/04/16 10:41:13;;;;;;;0.60;0.60;;;;;;;;;;13047624;22;20361;-90
2023/04/16 10:46:20;;;;;;;1.80;0.60;;;;;;;;;;13050066;22;20383;-91
2023/04/16 10:51:28;;;;;;;1.45;0.80;;;;;;;;;;13053613;22;20381;-91
2023/04/16 10:56:33;;;;;;;1.73;0.77;;;;;;;;;;13056131;22;20353;-90
2023/04/16 11:01:36;;;;;;;0.70;0.70;;;;;;;;;;13057792;22;20413;-90
2023/04/16 11:06:37;;;;;;;1.27;0.80;;;;;;;;;;13056101;22;20403;-91
2023/04/16 11:11:41;;;;;;;0.80;0.80;;;;;;;;;;13053460;22;20800;-91
2023/04/16 11:16:43;;;;;;;0.70;0.70;;;;;;;;;;13055654;22;20372;-92
2023/04/16 11:21:47;;;;;;;0.70;0.50;;;;;;;;;;13052844;22;20380;-91
2023/04/16 11:26:52;;;;;;;0.85;0.80;;;;;;;;;;13049163;22;20392;-92
2023/04/16 11:31:55;;;;;;;1.30;0.93;;;;;;;;;;13057939;22;20372;-92
2023/04/16 11:36:56;;;;;;;1.40;0.95;;;;;;;;;;13056784;22;20368;-94
2023/04/16 11:41:59;;;;;;;0.90;0.80;;;;;;;;;;13044235;22;20369;-92
2023/04/16 11:47:06;;;;;;;0.70;0.70;;;;;;;;;;13051075;22;20412;-93
2023/04/16 11:52:08;;;;;;;0.77;0.77;;;;;;;;;;13051682;22;20380;-87
2023/04/16 11:57:12;;;;;;;2.92;0.93;;;;;;;;;;13050271;22;20368;-92
2023/04/16 12:02:14;;;;;;;1.08;0.80;;;;;;;;;;13059834;22;20480;-92
2023/04/16 12:07:16;;;;;;;1.00;0.77;;;;;;;;;;13054223;22;20757;-88
2023/04/16 12:12:36;;;;;;;0.80;0.80;;;;;;;;;;13055246;22;20900;-93
2023/04/16 12:17:39;;;;;;;0.80;0.73;;;;;;;;;;13060078;22;20357;-92
2023/04/16 12:22:44;;;;;;;9.88;1.35;;;;;;;;;;13045620;22;20856;-92
2023/04/16 12:27:49;;;;;;;0.98;0.90;;;;;;;;;;13044459;22;20384;-90
2023/04/16 12:32:54;;;;;;;1.48;0.98;;;;;;;;;;13044140;22;20373;-91
2023/04/16 12:37:56;;;;;;;0.77;0.73;;;;;;;;;;13041891;22;20365;-93
2023/04/16 12:42:59;;;;;;;0.80;0.80;;;;;;;;;;13046430;22;20357;-83
2023/04/16 12:48:01;;;;;;;1.10;0.90;;;;;;;;;;13055664;22;20388;-93
2023/04/16 12:53:03;;;;;;;0.95;0.88;;;;;;;;;;13048701;22;20369;-92
2023/04/16 12:58:06;;;;;;;1.08;0.98;;;;;;;;;;13047354;22;20368;-93
2023/04/16 13:03:08;;;;;;;1.20;1.10;;;;;;;;;;13043204;22;20840;-92
2023/04/16 13:08:10;;;;;;;1.13;1.03;;;;;;;;;;13034993;22;20380;-92
2023/04/16 13:13:15;;;;;;;1.83;1.23;;;;;;;;;;13039085;22;20560;-92
2023/04/16 13:18:17;;;;;;;1.50;1.40;;;;;;;;;;13038250;22;20381;-93
2023/04/16 13:23:18;;;;;;;2.80;1.27;;;;;;;;;;13042084;22;20376;-93
2023/04/16 13:28:22;;;;;;;1.35;1.25;;;;;;;;;;13043269;22;20376;-91
2023/04/16 13:33:23;;;;;;;1.45;1.30;;;;;;;;;;13050142;22;20360;-93
2023/04/16 13:38:25;;;;;;;2.65;1.50;;;;;;;;;;13044748;22;20376;-94
2023/04/16 13:43:28;;;;;;;1.77;1.42;;;;;;;;;;13048365;22;20365;-94
2023/04/16 13:48:31;;;;;;;1.30;1.10;;;;;;;;;;13047020;22;20750;-93
2023/04/16 13:53:33;;;;;;;1.40;1.30;;;;;;;;;;13050399;22;20843;-94
2023/04/16 13:58:36;;;;;;;1.50;1.40;;;;;;;;;;13049258;22;20361;-93
2023/04/16 14:03:41;;;;;;;1.77;1.30;;;;;;;;;;13047506;22;20436;-92
2023/04/16 14:08:43;;;;;;;1.80;1.10;;;;;;;;;;13044328;22;20377;-86
2023/04/16 14:13:46;;;;;;;1.98;1.30;;;;;;;;;;13044936;22;20387;-87
2023/04/16 14:18:48;;;;;;;1.30;1.13;;;;;;;;;;13045606;22;20421;-87
2023/04/16 14:23:50;;;;;;;1.58;1.40;;;;;;;;;;13047244;22;20359;-87
2023/04/16 14:28:53;;;;;;;1.92;1.35;;;;;;;;;;13039511;22;20385;-87
2023/04/16 14:33:55;;;;;;;2.20;1.60;;;;;;;;;;13045335;22;20352;-87
2023/04/16 14:38:57;;;;;;;1.40;1.30;;;;;;;;;;13040763;22;20784;-87
2023/04/16 14:44:00;;;;;;;1.90;1.50;;;;;;;;;;13041364;22;20385;-86
2023/04/16 14:49:02;;;;;;;1.50;1.30;;;;;;;;;;13044868;22;20381;-94
2023/04/16 14:54:04;;;;;;;1.40;0.80;;;;;;;;;;13049851;22;20360;-94
2023/04/16 14:59:08;;;;;;;1.20;0.90;;;;;;;;;;13053348;22;20868;-95
2023/04/16 15:04:10;;;;;;;1.52;0.90;;;;;;;;;;13055234;22;20364;-93
2023/04/16 15:09:11;;;;;;;1.20;1.00;;;;;;;;;;13048287;22;20383;-94
2023/04/16 15:14:15;;;;;;;1.38;1.08;;;;;;;;;;13048722;22;20878;-92
2023/04/16 15:19:17;;;;;;;1.65;1.23;;;;;;;;;;13021200;22;20361;-92
2023/04/16 15:24:19;;;;;;;2.50;1.17;;;;;;;;;;13048405;22;20357;-92
2023/04/16 15:29:23;;;;;;;2.28;1.10;;;;;;;;;;13053692;22;20381;-95
2023/04/16 15:34:26;;;;;;;1.17;1.00;;;;;;;;;;13055754;22;20387;-95
2023/04/16 15:39:28;;;;;;;3.30;1.10;;;;;;;;;;13054191;22;20357;-92
2023/04/16 15:44:31;;;;;;;2.28;0.90;;;;;;;;;;13053092;22;20377;-93
2023/04/16 15:49:33;;;;;;;4.43;2.07;;;;;;;;;;13052167;22;20434;-95
2023/04/16 15:54:35;;;;;;;1.80;1.00;;;;;;;;;;13052377;22;20365;-93
2023/04/16 15:59:38;;;;;;;1.25;1.15;;;;;;;;;;13052448;22;20393;-93
2023/04/16 16:04:44;;;;;;;2.13;1.20;;;;;;;;;;13051465;22;20410;-93
2023/04/16 16:09:47;;;;;;;1.92;0.98;;;;;;;;;;13058513;22;20377;-92
2023/04/16 17:21:55;;;;;;;1.45;1.15;;;;;;;;;;12974941;22;20366;-91
2023/04/16 17:26:57;;;;;;;1.75;1.10;;;;;;;;;;12981324;22;20362;-91
2023/04/16 17:31:59;;;;;;;1.52;0.80;;;;;;;;;;12980670;22;20379;-92
2023/04/16 17:37:02;;;;;;;1.45;0.90;;;;;;;;;;12983779;22;20417;-91
2023/04/16 17:42:04;;;;;;;2.20;0.90;;;;;;;;;;12984386;22;20434;-91
2023/04/16 17:47:06;;;;;;;2.72;0.90;;;;;;;;;;12957190;22;20359;-91
2023/04/16 17:52:09;;;;;;;1.10;1.00;;;;;;;;;;12983431;22;20382;-90
2023/04/16 17:57:11;;;;;;;1.45;1.20;;;;;;;;;;12982831;22;20366;-90
2023/04/16 18:02:13;;;;;;;1.83;1.20;;;;;;;;;;12980015;22;20457;-92
2023/04/16 18:07:16;;;;;;;2.50;1.50;;;;;;;;;;12983618;22;20355;-91
2023/04/16 18:12:18;;;;;;;1.77;1.10;;;;;;;;;;12982773;22;20389;-90
2023/04/16 18:17:21;;;;;;;2.85;2.55;;;;;;;;;;12984045;22;20385;-90
2023/04/16 18:22:27;;;;;;;3.10;2.53;;;;;;;;;;12950370;22;20376;-91
2023/04/16 18:27:28;;;;;;;2.75;1.60;;;;;;;;;;12912420;23;20459;-93
2023/04/16 18:32:30;;;;;;;1.50;1.40;;;;;;;;;;12915146;23;20451;-94
2023/04/16 18:37:33;;;;;;;1.80;1.40;;;;;;;;;;12913194;23;21114;-92
2023/04/16 18:42:35;;;;;;;3.30;2.73;;;;;;;;;;12913339;23;20772;-93
2023/04/16 18:47:38;;;;;;;5.40;3.90;;;;;;;;;;12915488;23;20399;-93
2023/04/16 18:52:42;;;;;;;9.07;6.50;;;;;;;;;;12913020;23;20380;-93
2023/04/16 18:57:44;;;;;;;7.00;4.80;;;;;;;;;;12914139;23;20368;-93
2023/04/16 19:02:45;;;;;;;7.23;6.53;;;;;;;;;;12913749;23;20411;-93
2023/04/16 19:07:49;;;;;;;6.22;4.97;;;;;;;;;;12917495;23;20379;-93
2023/04/16 19:12:51;;;;;;;5.03;3.40;;;;;;;;;;12918108;23;20406;-94
2023/04/16 19:17:53;;;;;;;3.03;2.33;;;;;;;;;;12919863;23;20372;-93
2023/04/16 19:22:56;;;;;;;4.60;3.20;;;;;;;;;;12921348;22;20376;-93
2023/04/16 19:28:01;;;;;;;7.13;5.30;;;;;;;;;;12918320;23;20372;-93
2023/04/16 19:33:03;;;;;;;6.70;5.80;;;;;;;;;;12916531;23;20891;-92
2023/04/16 19:38:06;;;;;;;8.47;5.43;;;;;;;;;;12917791;23;20448;-92
2023/04/16 19:43:08;;;;;;;6.78;5.80;;;;;;;;;;12924939;23;20387;-92
2023/04/16 19:48:10;;;;;;;9.23;6.83;;;;;;;;;;12928636;23;20419;-92
2023/04/16 19:53:13;;;;;;;6.97;5.10;;;;;;;;;;12911842;23;20454;-93
2023/04/16 19:58:15;;;;;;;10.07;5.88;;;;;;;;;;12941281;23;20380;-92
2023/04/16 20:03:17;;;;;;;15.73;9.02;;;;;;;;;;12919225;23;20376;-92
2023/04/16 20:08:20;;;;;;;24.20;11.97;;;;;;;;;;12915311;23;20383;-93
2023/04/16 20:13:24;;;;;;;17.80;9.98;;;;;;;;;;12916632;23;20395;-93
2023/04/16 20:18:27;;;;;;;10.02;6.13;;;;;;;;;;12916078;23;20384;-93
2023/04/16 20:23:30;;;;;;;4.72;3.55;;;;;;;;;;12910932;22;20372;-93
2023/04/16 20:28:33;;;;;;;5.67;3.73;;;;;;;;;;12915806;23;20379;-92
2023/04/16 20:33:35;;;;;;;8.32;4.20;;;;;;;;;;12917945;23;20860;-93
2023/04/16 20:38:38;;;;;;;4.25;3.67;;;;;;;;;;12916340;23;20375;-92
2023/04/16 20:43:41;;;;;;;5.63;3.83;;;;;;;;;;12921079;23;20472;-93
2023/04/16 20:48:43;;;;;;;6.32;3.70;;;;;;;;;;12921025;23;20394;-93
2023/04/16 20:53:46;;;;;;;4.20;3.10;;;;;;;;;;12924514;23;20360;-93
2023/04/16 20:58:48;;;;;;;6.03;3.70;;;;;;;;;;12937356;23;20875;-94
2023/04/16 21:03:50;;;;;;;4.88;3.92;;;;;;;;;;12923364;23;20424;-91
2023/04/16 21:08:53;;;;;;;5.40;4.20;;;;;;;;;;12924259;23;20368;-94
2023/04/16 21:13:55;;;;;;;6.37;4.73;;;;;;;;;;12925758;23;21143;-94
2023/04/16 21:18:57;;;;;;;7.57;6.03;;;;;;;;;;12921356;23;20451;-94
2023/04/16 21:24:00;;;;;;;8.30;6.40;;;;;;;;;;12919831;22;20396;-93
2023/04/16 21:29:02;;;;;;;9.75;7.03;;;;;;;;;;12923309;23;20380;-93
2023/04/16 21:34:04;;;;;;;9.43;7.40;;;;;;;;;;12924858;23;20844;-94
2023/04/16 21:39:08;;;;;;;10.23;7.35;;;;;;;;;;12924097;23;20377;-93
2023/04/16 21:44:09;;;;;;;10.47;7.67;;;;;;;;;;12923742;23;20407;-93
2023/04/16 21:49:11;;;;;;;9.90;8.05;;;;;;;;;;12927075;23;20386;-93
2023/04/16 21:54:16;;;;;;;10.32;8.30;;;;;;;;;;12929934;23;20368;-93
2023/04/16 21:59:18;;;;;;;8.90;7.80;;;;;;;;;;12930431;23;20378;-94
2023/04/16 22:04:24;;;;;;;10.73;8.17;;;;;;;;;;12930443;23;20353;-94
2023/04/16 22:09:28;;;;;;;8.85;7.80;;;;;;;;;;12931926;23;20411;-94
2023/04/16 22:14:30;;;;;;;10.03;7.57;;;;;;;;;;12930327;23;20360;-94
2023/04/16 22:19:33;;;;;;;10.60;8.07;;;;;;;;;;12930536;23;20919;-94
2023/04/16 22:24:36;;;;;;;9.97;7.60;;;;;;;;;;12927269;22;20396;-94
2023/04/16 22:29:38;;;;;;;9.83;7.57;;;;;;;;;;12928005;23;20384;-95
2023/04/16 22:34:40;;;;;;;9.30;7.32;;;;;;;;;;12928221;23;20910;-94
2023/04/16 22:39:44;;;;;;;9.60;7.07;;;;;;;;;;12925945;23;20740;-94
2023/04/16 22:44:46;;;;;;;9.60;7.18;;;;;;;;;;12931843;23;20462;-94
2023/04/16 22:49:47;;;;;;;9.60;7.88;;;;;;;;;;12928425;23;20411;-94
2023/04/16 22:54:51;;;;;;;9.02;7.63;;;;;;;;;;12926773;23;20870;-94
2023/04/16 22:59:52;;;;;;;10.02;7.10;;;;;;;;;;12929211;23;20364;-94
2023/04/16 23:04:54;;;;;;;8.63;6.60;;;;;;;;;;12928756;23;20443;-94
2023/04/16 23:09:57;;;;;;;8.45;6.63;;;;;;;;;;12925994;23;20380;-94
2023/04/16 23:14:59;;;;;;;8.40;6.53;;;;;;;;;;12930614;23;20360;-94
2023/04/16 23:20:04;;;;;;;7.93;6.00;;;;;;;;;;12931459;23;20356;-93
2023/04/16 23:25:08;;;;;;;7.40;5.97;;;;;;;;;;12930785;22;20376;-94
2023/04/16 23:30:11;;;;;;;7.43;5.78;;;;;;;;;;12929171;23;20410;-94
2023/04/16 23:35:19;;;;;;;7.70;5.88;;;;;;;;;;12930896;23;20356;-94
2023/04/16 23:40:22;;;;;;;7.20;5.55;;;;;;;;;;12930767;23;20400;-94
2023/04/16 23:45:24;;;;;;;7.10;5.47;;;;;;;;;;12930916;23;20837;-94
2023/04/16 23:50:26;;;;;;;7.35;5.57;;;;;;;;;;12927958;23;20388;-94
2023/04/16 23:55:29;;;;;;;8.30;5.37;;;;;;;;;;12928077;23;20392;-94
